sensor_id;sensor_type;location;lat;lon;timestamp;P1;durP1;ratioP1;P2;durP2;ratioP2
74535;SDS011;63013;51.104;-115.370;2023-02-28T00:01:25;0.80;;;0.50;;
74535;SDS011;63013;51.104;-115.370;2023-02-28T00:03:52;0.40;;;0.30;;
74535;SDS011;63013;51.104;-115.370;2023-02-28T00:06:19;0.90;;;0.30;;
74535;SDS011;63013;51.104;-115.370;2023-02-28T00:08:46;0.60;;;0.40;;
74535;SDS011;63013;51.104;-115.370;2023-02-28T00:11:15;0.70;;;0.40;;
74535;SDS011;63013;51.104;-115.370;2023-02-28T00:13:45;0.70;;;0.40;;
74535;SDS011;63013;51.104;-115.370;2023-02-28T00:16:17;0.70;;;0.40;;
74535;SDS011;63013;51.104;-115.370;2023-02-28T00:18:46;0.60;;;0.30;;
74535;SDS011;63013;51.104;-115.370;2023-02-28T00:21:13;0.90;;;0.30;;
74535;SDS011;63013;51.104;-115.370;2023-02-28T00:23:41;1.10;;;0.40;;
74535;SDS011;63013;51.104;-115.370;2023-02-28T00:26:08;1.30;;;0.50;;
74535;SDS011;63013;51.104;-115.370;2023-02-28T00:28:36;1.60;;;0.80;;
74535;SDS011;63013;51.104;-115.370;2023-02-28T00:31:03;2.00;;;0.70;;
74535;SDS011;63013;51.104;-115.370;2023-02-28T00:33:31;2.30;;;1.00;;
74535;SDS011;63013;51.104;-115.370;2023-02-28T00:36:06;2.50;;;1.20;;
74535;SDS011;63013;51.104;-115.370;2023-02-28T00:38:35;2.30;;;1.10;;
74535;SDS011;63013;51.104;-115.370;2023-02-28T00:41:03;1.90;;;0.90;;
74535;SDS011;63013;51.104;-115.370;2023-02-28T00:43:32;2.40;;;1.00;;
74535;SDS011;63013;51.104;-115.370;2023-02-28T00:46:00;1.90;;;0.90;;
74535;SDS011;63013;51.104;-115.370;2023-02-28T00:48:28;1.50;;;0.80;;
74535;SDS011;63013;51.104;-115.370;2023-02-28T00:50:55;2.00;;;1.20;;
74535;SDS011;63013;51.104;-115.370;2023-02-28T00:53:22;1.20;;;0.90;;
74535;SDS011;63013;51.104;-115.370;2023-02-28T00:55:50;2.40;;;0.80;;
74535;SDS011;63013;51.104;-115.370;2023-02-28T00:58:17;1.10;;;0.60;;
74535;SDS011;63013;51.104;-115.370;2023-02-28T01:00:44;1.40;;;0.70;;
74535;SDS011;63013;51.104;-115.370;2023-02-28T01:03:16;1.60;;;0.90;;
74535;SDS011;63013;51.104;-115.370;2023-02-28T01:05:45;1.50;;;0.70;;
74535;SDS011;63013;51.104;-115.370;2023-02-28T01:08:13;2.50;;;0.70;;
74535;SDS011;63013;51.104;-115.370;2023-02-28T01:10:40;2.00;;;0.70;;
74535;SDS011;63013;51.104;-115.370;2023-02-28T01:13:08;1.30;;;0.70;;
74535;SDS011;63013;51.104;-115.370;2023-02-28T01:15:35;1.40;;;0.70;;
74535;SDS011;63013;51.104;-115.370;2023-02-28T01:18:02;1.00;;;0.70;;
74535;SDS011;63013;51.104;-115.370;2023-02-28T01:20:29;1.80;;;0.60;;
74535;SDS011;63013;51.104;-115.370;2023-02-28T01:22:56;1.80;;;0.60;;
74535;SDS011;63013;51.104;-115.370;2023-02-28T01:25:26;1.10;;;0.50;;
74535;SDS011;63013;51.104;-115.370;2023-02-28T01:27:53;0.90;;;0.50;;
74535;SDS011;63013;51.104;-115.370;2023-02-28T01:30:20;2.10;;;0.60;;
74535;SDS011;63013;51.104;-115.370;2023-02-28T01:32:47;1.10;;;0.70;;
74535;SDS011;63013;51.104;-115.370;2023-02-28T01:35:16;1.00;;;0.50;;
74535;SDS011;63013;51.104;-115.370;2023-02-28T01:37:43;1.00;;;0.50;;
74535;SDS011;63013;51.104;-115.370;2023-02-28T01:40:10;0.90;;;0.50;;
74535;SDS011;63013;51.104;-115.370;2023-02-28T01:42:38;1.10;;;0.50;;
74535;SDS011;63013;51.104;-115.370;2023-02-28T01:48:07;1.10;;;0.50;;
74535;SDS011;63013;51.104;-115.370;2023-02-28T01:50:41;1.00;;;0.50;;
74535;SDS011;63013;51.104;-115.370;2023-02-28T01:53:15;1.40;;;0.50;;
74535;SDS011;63013;51.104;-115.370;2023-02-28T01:55:48;1.00;;;0.50;;
74535;SDS011;63013;51.104;-115.370;2023-02-28T01:58:18;1.00;;;0.40;;
74535;SDS011;63013;51.104;-115.370;2023-02-28T02:00:45;0.80;;;0.30;;
74535;SDS011;63013;51.104;-115.370;2023-02-28T02:03:18;0.90;;;0.40;;
74535;SDS011;63013;51.104;-115.370;2023-02-28T02:05:46;0.60;;;0.40;;
74535;SDS011;63013;51.104;-115.370;2023-02-28T02:08:18;0.50;;;0.40;;
74535;SDS011;63013;51.104;-115.370;2023-02-28T02:10:52;0.70;;;0.40;;
74535;SDS011;63013;51.104;-115.370;2023-02-28T02:13:39;1.00;;;0.50;;
74535;SDS011;63013;51.104;-115.370;2023-02-28T02:16:49;1.40;;;0.40;;
74535;SDS011;63013;51.104;-115.370;2023-02-28T02:31:26;0.40;;;0.30;;
74535;SDS011;63013;51.104;-115.370;2023-02-28T02:34:35;0.70;;;0.50;;
74535;SDS011;63013;51.104;-115.370;2023-02-28T02:37:42;0.40;;;0.30;;
74535;SDS011;63013;51.104;-115.370;2023-02-28T02:40:21;0.50;;;0.50;;
74535;SDS011;63013;51.104;-115.370;2023-02-28T02:45:52;1.20;;;0.40;;
74535;SDS011;63013;51.104;-115.370;2023-02-28T02:48:30;0.50;;;0.30;;
74535;SDS011;63013;51.104;-115.370;2023-02-28T02:51:03;0.90;;;0.40;;
74535;SDS011;63013;51.104;-115.370;2023-02-28T02:53:47;1.80;;;0.30;;
74535;SDS011;63013;51.104;-115.370;2023-02-28T02:56:26;3.60;;;0.30;;
74535;SDS011;63013;51.104;-115.370;2023-02-28T02:59:01;0.70;;;0.40;;
74535;SDS011;63013;51.104;-115.370;2023-02-28T03:01:36;0.40;;;0.30;;
74535;SDS011;63013;51.104;-115.370;2023-02-28T03:04:13;0.70;;;0.30;;
74535;SDS011;63013;51.104;-115.370;2023-02-28T03:06:44;0.80;;;0.40;;
74535;SDS011;63013;51.104;-115.370;2023-02-28T03:09:11;0.50;;;0.30;;
74535;SDS011;63013;51.104;-115.370;2023-02-28T03:11:40;0.90;;;0.30;;
74535;SDS011;63013;51.104;-115.370;2023-02-28T03:23:08;1.60;;;0.70;;
74535;SDS011;63013;51.104;-115.370;2023-02-28T03:25:56;0.70;;;0.40;;
74535;SDS011;63013;51.104;-115.370;2023-02-28T03:28:45;1.20;;;0.30;;
74535;SDS011;63013;51.104;-115.370;2023-02-28T03:31:38;1.00;;;0.40;;
74535;SDS011;63013;51.104;-115.370;2023-02-28T03:34:55;0.80;;;0.30;;
74535;SDS011;63013;51.104;-115.370;2023-02-28T03:37:16;0.50;;;0.40;;
74535;SDS011;63013;51.104;-115.370;2023-02-28T03:40:01;0.70;;;0.40;;
74535;SDS011;63013;51.104;-115.370;2023-02-28T03:42:36;1.70;;;0.60;;
74535;SDS011;63013;51.104;-115.370;2023-02-28T03:45:13;0.90;;;0.30;;
74535;SDS011;63013;51.104;-115.370;2023-02-28T03:47:54;0.70;;;0.30;;
74535;SDS011;63013;51.104;-115.370;2023-02-28T03:50:45;1.40;;;0.40;;
74535;SDS011;63013;51.104;-115.370;2023-02-28T04:02:06;0.80;;;0.30;;
74535;SDS011;63013;51.104;-115.370;2023-02-28T04:04:34;1.20;;;0.40;;
74535;SDS011;63013;51.104;-115.370;2023-02-28T04:07:06;1.20;;;0.30;;
74535;SDS011;63013;51.104;-115.370;2023-02-28T04:09:35;1.00;;;0.50;;
74535;SDS011;63013;51.104;-115.370;2023-02-28T04:12:02;1.30;;;0.50;;
74535;SDS011;63013;51.104;-115.370;2023-02-28T04:14:29;1.50;;;0.40;;
74535;SDS011;63013;51.104;-115.370;2023-02-28T04:16:57;1.90;;;0.60;;
74535;SDS011;63013;51.104;-115.370;2023-02-28T04:19:24;1.40;;;0.40;;
74535;SDS011;63013;51.104;-115.370;2023-02-28T04:21:52;1.00;;;0.40;;
74535;SDS011;63013;51.104;-115.370;2023-02-28T04:24:26;0.80;;;0.40;;
74535;SDS011;63013;51.104;-115.370;2023-02-28T04:26:55;1.20;;;0.60;;
74535;SDS011;63013;51.104;-115.370;2023-02-28T04:29:28;1.60;;;0.30;;
74535;SDS011;63013;51.104;-115.370;2023-02-28T04:31:59;1.20;;;0.40;;
74535;SDS011;63013;51.104;-115.370;2023-02-28T04:34:29;1.40;;;0.50;;
74535;SDS011;63013;51.104;-115.370;2023-02-28T04:36:57;1.00;;;0.50;;
74535;SDS011;63013;51.104;-115.370;2023-02-28T04:39:26;0.70;;;0.30;;
74535;SDS011;63013;51.104;-115.370;2023-02-28T04:41:53;1.10;;;0.40;;
74535;SDS011;63013;51.104;-115.370;2023-02-28T04:44:20;1.50;;;0.50;;
74535;SDS011;63013;51.104;-115.370;2023-02-28T04:46:48;0.80;;;0.30;;
74535;SDS011;63013;51.104;-115.370;2023-02-28T04:49:16;1.60;;;0.50;;
74535;SDS011;63013;51.104;-115.370;2023-02-28T04:51:43;1.10;;;0.50;;
74535;SDS011;63013;51.104;-115.370;2023-02-28T04:54:10;1.00;;;0.40;;
74535;SDS011;63013;51.104;-115.370;2023-02-28T04:56:39;1.20;;;0.30;;
74535;SDS011;63013;51.104;-115.370;2023-02-28T04:59:06;0.60;;;0.30;;
74535;SDS011;63013;51.104;-115.370;2023-02-28T05:01:34;1.50;;;0.50;;
74535;SDS011;63013;51.104;-115.370;2023-02-28T05:04:03;0.90;;;0.40;;
74535;SDS011;63013;51.104;-115.370;2023-02-28T05:06:32;1.30;;;0.40;;
74535;SDS011;63013;51.104;-115.370;2023-02-28T05:09:00;1.00;;;0.40;;
74535;SDS011;63013;51.104;-115.370;2023-02-28T05:11:30;0.90;;;0.50;;
74535;SDS011;63013;51.104;-115.370;2023-02-28T05:14:03;1.00;;;0.40;;
74535;SDS011;63013;51.104;-115.370;2023-02-28T05:16:32;1.30;;;0.40;;
74535;SDS011;63013;51.104;-115.370;2023-02-28T05:18:59;0.70;;;0.40;;
74535;SDS011;63013;51.104;-115.370;2023-02-28T05:21:32;0.70;;;0.30;;
74535;SDS011;63013;51.104;-115.370;2023-02-28T05:24:15;0.70;;;0.40;;
74535;SDS011;63013;51.104;-115.370;2023-02-28T05:26:50;1.30;;;0.40;;
74535;SDS011;63013;51.104;-115.370;2023-02-28T05:29:19;0.50;;;0.30;;
74535;SDS011;63013;51.104;-115.370;2023-02-28T05:31:46;1.10;;;0.40;;
74535;SDS011;63013;51.104;-115.370;2023-02-28T05:34:14;0.70;;;0.30;;
74535;SDS011;63013;51.104;-115.370;2023-02-28T05:36:42;0.80;;;0.40;;
74535;SDS011;63013;51.104;-115.370;2023-02-28T05:39:09;0.40;;;0.40;;
74535;SDS011;63013;51.104;-115.370;2023-02-28T05:41:40;0.60;;;0.40;;
74535;SDS011;63013;51.104;-115.370;2023-02-28T05:44:08;0.60;;;0.50;;
74535;SDS011;63013;51.104;-115.370;2023-02-28T05:46:36;1.20;;;0.30;;
74535;SDS011;63013;51.104;-115.370;2023-02-28T05:49:04;0.90;;;0.50;;
74535;SDS011;63013;51.104;-115.370;2023-02-28T05:51:31;0.60;;;0.40;;
74535;SDS011;63013;51.104;-115.370;2023-02-28T05:54:01;1.00;;;0.40;;
74535;SDS011;63013;51.104;-115.370;2023-02-28T05:56:28;0.70;;;0.30;;
74535;SDS011;63013;51.104;-115.370;2023-02-28T05:58:55;1.30;;;0.40;;
74535;SDS011;63013;51.104;-115.370;2023-02-28T06:01:34;0.60;;;0.20;;
74535;SDS011;63013;51.104;-115.370;2023-02-28T06:04:05;0.70;;;0.30;;
74535;SDS011;63013;51.104;-115.370;2023-02-28T06:06:33;0.30;;;0.30;;
74535;SDS011;63013;51.104;-115.370;2023-02-28T06:09:03;0.90;;;0.40;;
74535;SDS011;63013;51.104;-115.370;2023-02-28T06:11:31;1.00;;;0.30;;
74535;SDS011;63013;51.104;-115.370;2023-02-28T06:13:59;0.80;;;0.40;;
74535;SDS011;63013;51.104;-115.370;2023-02-28T06:16:29;1.30;;;0.30;;
74535;SDS011;63013;51.104;-115.370;2023-02-28T06:18:59;1.00;;;0.40;;
74535;SDS011;63013;51.104;-115.370;2023-02-28T06:21:29;0.50;;;0.40;;
74535;SDS011;63013;51.104;-115.370;2023-02-28T06:23:57;1.10;;;0.30;;
74535;SDS011;63013;51.104;-115.370;2023-02-28T06:26:25;0.80;;;0.30;;
74535;SDS011;63013;51.104;-115.370;2023-02-28T06:28:52;1.70;;;0.30;;
74535;SDS011;63013;51.104;-115.370;2023-02-28T06:31:19;0.50;;;0.30;;
74535;SDS011;63013;51.104;-115.370;2023-02-28T06:33:48;1.00;;;0.30;;
74535;SDS011;63013;51.104;-115.370;2023-02-28T06:36:17;0.40;;;0.30;;
74535;SDS011;63013;51.104;-115.370;2023-02-28T06:38:44;1.00;;;0.20;;
74535;SDS011;63013;51.104;-115.370;2023-02-28T06:41:14;0.80;;;0.40;;
74535;SDS011;63013;51.104;-115.370;2023-02-28T06:43:42;1.10;;;0.30;;
74535;SDS011;63013;51.104;-115.370;2023-02-28T06:46:12;1.00;;;0.30;;
74535;SDS011;63013;51.104;-115.370;2023-02-28T06:48:42;0.50;;;0.40;;
74535;SDS011;63013;51.104;-115.370;2023-02-28T06:51:16;0.30;;;0.30;;
74535;SDS011;63013;51.104;-115.370;2023-02-28T06:53:46;1.00;;;0.30;;
74535;SDS011;63013;51.104;-115.370;2023-02-28T06:56:15;0.40;;;0.20;;
74535;SDS011;63013;51.104;-115.370;2023-02-28T06:58:46;0.50;;;0.30;;
74535;SDS011;63013;51.104;-115.370;2023-02-28T07:01:19;0.70;;;0.30;;
74535;SDS011;63013;51.104;-115.370;2023-02-28T07:03:48;0.40;;;0.30;;
74535;SDS011;63013;51.104;-115.370;2023-02-28T07:06:22;1.00;;;0.30;;
74535;SDS011;63013;51.104;-115.370;2023-02-28T07:08:54;1.00;;;0.40;;
74535;SDS011;63013;51.104;-115.370;2023-02-28T07:11:23;0.60;;;0.30;;
74535;SDS011;63013;51.104;-115.370;2023-02-28T07:13:56;0.50;;;0.30;;
74535;SDS011;63013;51.104;-115.370;2023-02-28T07:16:24;0.70;;;0.30;;
74535;SDS011;63013;51.104;-115.370;2023-02-28T07:18:55;0.20;;;0.20;;
74535;SDS011;63013;51.104;-115.370;2023-02-28T07:21:22;0.70;;;0.40;;
74535;SDS011;63013;51.104;-115.370;2023-02-28T07:23:49;0.50;;;0.30;;
74535;SDS011;63013;51.104;-115.370;2023-02-28T07:26:19;0.50;;;0.30;;
74535;SDS011;63013;51.104;-115.370;2023-02-28T07:28:47;0.40;;;0.30;;
74535;SDS011;63013;51.104;-115.370;2023-02-28T07:31:16;0.70;;;0.30;;
74535;SDS011;63013;51.104;-115.370;2023-02-28T07:33:44;0.50;;;0.30;;
74535;SDS011;63013;51.104;-115.370;2023-02-28T07:36:16;1.10;;;0.40;;
74535;SDS011;63013;51.104;-115.370;2023-02-28T07:38:47;0.40;;;0.30;;
74535;SDS011;63013;51.104;-115.370;2023-02-28T07:41:17;0.40;;;0.30;;
74535;SDS011;63013;51.104;-115.370;2023-02-28T07:43:45;0.90;;;0.30;;
74535;SDS011;63013;51.104;-115.370;2023-02-28T07:46:14;0.50;;;0.30;;
74535;SDS011;63013;51.104;-115.370;2023-02-28T07:48:44;0.70;;;0.30;;
74535;SDS011;63013;51.104;-115.370;2023-02-28T07:51:11;0.90;;;0.50;;
74535;SDS011;63013;51.104;-115.370;2023-02-28T07:53:38;0.40;;;0.30;;
74535;SDS011;63013;51.104;-115.370;2023-02-28T07:56:06;0.70;;;0.30;;
74535;SDS011;63013;51.104;-115.370;2023-02-28T07:58:34;0.40;;;0.30;;
74535;SDS011;63013;51.104;-115.370;2023-02-28T08:01:09;0.50;;;0.30;;
74535;SDS011;63013;51.104;-115.370;2023-02-28T08:03:37;1.10;;;0.30;;
74535;SDS011;63013;51.104;-115.370;2023-02-28T08:06:07;0.60;;;0.30;;
74535;SDS011;63013;51.104;-115.370;2023-02-28T08:08:42;0.60;;;0.30;;
74535;SDS011;63013;51.104;-115.370;2023-02-28T08:11:10;0.50;;;0.30;;
74535;SDS011;63013;51.104;-115.370;2023-02-28T08:13:37;1.20;;;0.50;;
74535;SDS011;63013;51.104;-115.370;2023-02-28T08:16:05;0.60;;;0.30;;
74535;SDS011;63013;51.104;-115.370;2023-02-28T08:18:32;0.50;;;0.30;;
74535;SDS011;63013;51.104;-115.370;2023-02-28T08:21:05;0.80;;;0.40;;
74535;SDS011;63013;51.104;-115.370;2023-02-28T08:23:33;0.30;;;0.30;;
74535;SDS011;63013;51.104;-115.370;2023-02-28T08:26:01;1.10;;;0.30;;
74535;SDS011;63013;51.104;-115.370;2023-02-28T08:28:28;0.20;;;0.20;;
74535;SDS011;63013;51.104;-115.370;2023-02-28T08:30:55;0.30;;;0.20;;
74535;SDS011;63013;51.104;-115.370;2023-02-28T08:33:23;0.50;;;0.30;;
74535;SDS011;63013;51.104;-115.370;2023-02-28T08:35:55;1.00;;;0.30;;
74535;SDS011;63013;51.104;-115.370;2023-02-28T08:38:24;0.50;;;0.30;;
74535;SDS011;63013;51.104;-115.370;2023-02-28T08:40:58;0.80;;;0.30;;
74535;SDS011;63013;51.104;-115.370;2023-02-28T08:43:27;2.30;;;0.30;;
74535;SDS011;63013;51.104;-115.370;2023-02-28T08:45:55;0.40;;;0.30;;
74535;SDS011;63013;51.104;-115.370;2023-02-28T08:48:24;0.60;;;0.30;;
74535;SDS011;63013;51.104;-115.370;2023-02-28T08:51:01;0.60;;;0.20;;
74535;SDS011;63013;51.104;-115.370;2023-02-28T08:53:31;0.30;;;0.30;;
74535;SDS011;63013;51.104;-115.370;2023-02-28T08:56:07;0.20;;;0.20;;
74535;SDS011;63013;51.104;-115.370;2023-02-28T08:58:36;0.70;;;0.30;;
74535;SDS011;63013;51.104;-115.370;2023-02-28T09:01:12;0.70;;;0.40;;
74535;SDS011;63013;51.104;-115.370;2023-02-28T09:03:42;0.30;;;0.30;;
74535;SDS011;63013;51.104;-115.370;2023-02-28T09:06:10;0.50;;;0.30;;
74535;SDS011;63013;51.104;-115.370;2023-02-28T09:08:38;0.50;;;0.30;;
74535;SDS011;63013;51.104;-115.370;2023-02-28T09:11:05;0.30;;;0.30;;
74535;SDS011;63013;51.104;-115.370;2023-02-28T09:13:33;0.60;;;0.40;;
74535;SDS011;63013;51.104;-115.370;2023-02-28T09:16:03;0.50;;;0.30;;
74535;SDS011;63013;51.104;-115.370;2023-02-28T09:18:35;0.40;;;0.30;;
74535;SDS011;63013;51.104;-115.370;2023-02-28T09:21:08;0.50;;;0.30;;
74535;SDS011;63013;51.104;-115.370;2023-02-28T09:23:41;0.30;;;0.30;;
74535;SDS011;63013;51.104;-115.370;2023-02-28T09:26:17;0.90;;;0.30;;
74535;SDS011;63013;51.104;-115.370;2023-02-28T09:28:46;0.40;;;0.30;;
74535;SDS011;63013;51.104;-115.370;2023-02-28T09:31:16;0.40;;;0.30;;
74535;SDS011;63013;51.104;-115.370;2023-02-28T09:33:47;0.50;;;0.20;;
74535;SDS011;63013;51.104;-115.370;2023-02-28T09:36:16;0.30;;;0.20;;
74535;SDS011;63013;51.104;-115.370;2023-02-28T09:38:43;0.30;;;0.20;;
74535;SDS011;63013;51.104;-115.370;2023-02-28T09:41:20;0.60;;;0.30;;
74535;SDS011;63013;51.104;-115.370;2023-02-28T09:44:00;0.20;;;0.20;;
74535;SDS011;63013;51.104;-115.370;2023-02-28T09:46:48;0.60;;;0.20;;
74535;SDS011;63013;51.104;-115.370;2023-02-28T09:49:24;0.40;;;0.20;;
74535;SDS011;63013;51.104;-115.370;2023-02-28T09:52:01;0.60;;;0.30;;
74535;SDS011;63013;51.104;-115.370;2023-02-28T09:54:39;0.50;;;0.30;;
74535;SDS011;63013;51.104;-115.370;2023-02-28T10:00:25;0.40;;;0.30;;
74535;SDS011;63013;51.104;-115.370;2023-02-28T10:03:39;0.30;;;0.30;;
74535;SDS011;63013;51.104;-115.370;2023-02-28T10:06:17;0.70;;;0.30;;
74535;SDS011;63013;51.104;-115.370;2023-02-28T10:09:07;0.40;;;0.40;;
74535;SDS011;63013;51.104;-115.370;2023-02-28T10:11:40;0.90;;;0.40;;
74535;SDS011;63013;51.104;-115.370;2023-02-28T10:14:15;0.30;;;0.20;;
74535;SDS011;63013;51.104;-115.370;2023-02-28T10:16:56;0.30;;;0.30;;
74535;SDS011;63013;51.104;-115.370;2023-02-28T10:19:55;0.30;;;0.30;;
74535;SDS011;63013;51.104;-115.370;2023-02-28T10:25:34;0.60;;;0.30;;
74535;SDS011;63013;51.104;-115.370;2023-02-28T10:28:14;0.40;;;0.20;;
74535;SDS011;63013;51.104;-115.370;2023-02-28T10:30:49;0.50;;;0.20;;
74535;SDS011;63013;51.104;-115.370;2023-02-28T10:33:35;0.60;;;0.30;;
74535;SDS011;63013;51.104;-115.370;2023-02-28T10:36:04;0.70;;;0.30;;
74535;SDS011;63013;51.104;-115.370;2023-02-28T10:38:38;0.80;;;0.30;;
74535;SDS011;63013;51.104;-115.370;2023-02-28T10:41:18;0.50;;;0.30;;
74535;SDS011;63013;51.104;-115.370;2023-02-28T10:44:13;0.40;;;0.30;;
74535;SDS011;63013;51.104;-115.370;2023-02-28T10:46:49;0.30;;;0.30;;
74535;SDS011;63013;51.104;-115.370;2023-02-28T10:49:21;0.40;;;0.30;;
74535;SDS011;63013;51.104;-115.370;2023-02-28T10:51:56;0.30;;;0.20;;
74535;SDS011;63013;51.104;-115.370;2023-02-28T10:54:30;0.40;;;0.30;;
74535;SDS011;63013;51.104;-115.370;2023-02-28T10:57:19;0.60;;;0.30;;
74535;SDS011;63013;51.104;-115.370;2023-02-28T11:00:15;0.30;;;0.20;;
74535;SDS011;63013;51.104;-115.370;2023-02-28T11:02:48;0.50;;;0.20;;
74535;SDS011;63013;51.104;-115.370;2023-02-28T11:05:32;0.40;;;0.30;;
74535;SDS011;63013;51.104;-115.370;2023-02-28T11:10:53;0.30;;;0.20;;
74535;SDS011;63013;51.104;-115.370;2023-02-28T11:13:28;0.60;;;0.30;;
74535;SDS011;63013;51.104;-115.370;2023-02-28T11:16:07;0.40;;;0.30;;
74535;SDS011;63013;51.104;-115.370;2023-02-28T11:18:46;0.30;;;0.20;;
74535;SDS011;63013;51.104;-115.370;2023-02-28T11:21:31;0.60;;;0.40;;
74535;SDS011;63013;51.104;-115.370;2023-02-28T11:24:12;0.20;;;0.20;;
74535;SDS011;63013;51.104;-115.370;2023-02-28T11:26:49;0.40;;;0.30;;
74535;SDS011;63013;51.104;-115.370;2023-02-28T11:29:22;0.30;;;0.30;;
74535;SDS011;63013;51.104;-115.370;2023-02-28T11:32:18;0.20;;;0.20;;
74535;SDS011;63013;51.104;-115.370;2023-02-28T11:35:01;0.20;;;0.20;;
74535;SDS011;63013;51.104;-115.370;2023-02-28T11:37:40;0.80;;;0.30;;
74535;SDS011;63013;51.104;-115.370;2023-02-28T11:40:18;0.60;;;0.30;;
74535;SDS011;63013;51.104;-115.370;2023-02-28T11:45:54;0.30;;;0.20;;
74535;SDS011;63013;51.104;-115.370;2023-02-28T11:52:08;0.40;;;0.20;;
74535;SDS011;63013;51.104;-115.370;2023-02-28T11:55:27;0.40;;;0.40;;
74535;SDS011;63013;51.104;-115.370;2023-02-28T12:01:11;0.20;;;0.20;;
74535;SDS011;63013;51.104;-115.370;2023-02-28T12:10:04;0.20;;;0.20;;
74535;SDS011;63013;51.104;-115.370;2023-02-28T12:18:30;0.50;;;0.20;;
74535;SDS011;63013;51.104;-115.370;2023-02-28T12:21:23;0.50;;;0.20;;
74535;SDS011;63013;51.104;-115.370;2023-02-28T12:32:05;0.50;;;0.20;;
74535;SDS011;63013;51.104;-115.370;2023-02-28T12:34:49;0.30;;;0.20;;
74535;SDS011;63013;51.104;-115.370;2023-02-28T12:41:02;0.60;;;0.30;;
74535;SDS011;63013;51.104;-115.370;2023-02-28T12:43:33;0.40;;;0.20;;
74535;SDS011;63013;51.104;-115.370;2023-02-28T12:48:51;0.20;;;0.20;;
74535;SDS011;63013;51.104;-115.370;2023-02-28T12:51:23;0.30;;;0.30;;
74535;SDS011;63013;51.104;-115.370;2023-02-28T12:54:24;0.60;;;0.20;;
74535;SDS011;63013;51.104;-115.370;2023-02-28T12:57:32;0.50;;;0.20;;
74535;SDS011;63013;51.104;-115.370;2023-02-28T13:00:28;0.40;;;0.30;;
74535;SDS011;63013;51.104;-115.370;2023-02-28T13:09:54;0.40;;;0.20;;
74535;SDS011;63013;51.104;-115.370;2023-02-28T13:12:24;0.30;;;0.30;;
74535;SDS011;63013;51.104;-115.370;2023-02-28T13:15:16;0.40;;;0.20;;
74535;SDS011;63013;51.104;-115.370;2023-02-28T13:17:52;0.20;;;0.20;;
74535;SDS011;63013;51.104;-115.370;2023-02-28T13:20:47;0.20;;;0.20;;
74535;SDS011;63013;51.104;-115.370;2023-02-28T13:29:38;0.20;;;0.20;;
74535;SDS011;63013;51.104;-115.370;2023-02-28T13:34:40;0.20;;;0.20;;
74535;SDS011;63013;51.104;-115.370;2023-02-28T13:39:54;0.20;;;0.20;;
74535;SDS011;63013;51.104;-115.370;2023-02-28T13:50:22;0.20;;;0.20;;
74535;SDS011;63013;51.104;-115.370;2023-02-28T13:58:53;0.30;;;0.20;;
74535;SDS011;63013;51.104;-115.370;2023-02-28T14:01:30;0.60;;;0.20;;
74535;SDS011;63013;51.104;-115.370;2023-02-28T14:07:50;0.20;;;0.20;;
74535;SDS011;63013;51.104;-115.370;2023-02-28T14:10:32;0.20;;;0.20;;
74535;SDS011;63013;51.104;-115.370;2023-02-28T14:16:12;0.30;;;0.20;;
74535;SDS011;63013;51.104;-115.370;2023-02-28T14:19:00;0.20;;;0.20;;
74535;SDS011;63013;51.104;-115.370;2023-02-28T14:21:36;0.20;;;0.20;;
74535;SDS011;63013;51.104;-115.370;2023-02-28T14:30:56;0.20;;;0.20;;
74535;SDS011;63013;51.104;-115.370;2023-02-28T14:36:47;0.20;;;0.20;;
74535;SDS011;63013;51.104;-115.370;2023-02-28T14:39:22;0.30;;;0.20;;
74535;SDS011;63013;51.104;-115.370;2023-02-28T14:41:51;0.20;;;0.20;;
74535;SDS011;63013;51.104;-115.370;2023-02-28T14:44:23;0.30;;;0.20;;
74535;SDS011;63013;51.104;-115.370;2023-02-28T14:47:01;0.20;;;0.20;;
74535;SDS011;63013;51.104;-115.370;2023-02-28T14:49:43;0.30;;;0.30;;
74535;SDS011;63013;51.104;-115.370;2023-02-28T14:54:55;0.30;;;0.20;;
74535;SDS011;63013;51.104;-115.370;2023-02-28T14:57:34;0.20;;;0.20;;
74535;SDS011;63013;51.104;-115.370;2023-02-28T15:00:20;0.20;;;0.20;;
74535;SDS011;63013;51.104;-115.370;2023-02-28T15:02:54;0.20;;;0.20;;
74535;SDS011;63013;51.104;-115.370;2023-02-28T15:05:28;0.20;;;0.20;;
74535;SDS011;63013;51.104;-115.370;2023-02-28T15:08:16;0.20;;;0.20;;
74535;SDS011;63013;51.104;-115.370;2023-02-28T15:16:34;0.20;;;0.20;;
74535;SDS011;63013;51.104;-115.370;2023-02-28T15:19:08;0.20;;;0.20;;
74535;SDS011;63013;51.104;-115.370;2023-02-28T15:21:42;0.20;;;0.20;;
74535;SDS011;63013;51.104;-115.370;2023-02-28T15:24:37;0.40;;;0.40;;
74535;SDS011;63013;51.104;-115.370;2023-02-28T15:27:16;0.20;;;0.20;;
74535;SDS011;63013;51.104;-115.370;2023-02-28T15:29:55;0.20;;;0.20;;
74535;SDS011;63013;51.104;-115.370;2023-02-28T15:32:32;0.10;;;0.10;;
74535;SDS011;63013;51.104;-115.370;2023-02-28T15:35:25;0.20;;;0.20;;
74535;SDS011;63013;51.104;-115.370;2023-02-28T15:38:15;0.50;;;0.20;;
74535;SDS011;63013;51.104;-115.370;2023-02-28T15:40:54;0.30;;;0.30;;
74535;SDS011;63013;51.104;-115.370;2023-02-28T15:48:43;1.20;;;0.30;;
74535;SDS011;63013;51.104;-115.370;2023-02-28T15:51:36;0.70;;;0.20;;
74535;SDS011;63013;51.104;-115.370;2023-02-28T15:54:11;0.20;;;0.20;;
74535;SDS011;63013;51.104;-115.370;2023-02-28T15:56:46;0.20;;;0.20;;
74535;SDS011;63013;51.104;-115.370;2023-02-28T15:59:26;0.20;;;0.20;;
74535;SDS011;63013;51.104;-115.370;2023-02-28T16:02:16;0.20;;;0.20;;
74535;SDS011;63013;51.104;-115.370;2023-02-28T16:07:41;0.50;;;0.20;;
74535;SDS011;63013;51.104;-115.370;2023-02-28T16:10:11;0.40;;;0.40;;
74535;SDS011;63013;51.104;-115.370;2023-02-28T16:12:40;0.30;;;0.30;;
74535;SDS011;63013;51.104;-115.370;2023-02-28T16:15:29;0.50;;;0.20;;
74535;SDS011;63013;51.104;-115.370;2023-02-28T16:18:01;0.40;;;0.40;;
74535;SDS011;63013;51.104;-115.370;2023-02-28T16:20:30;0.20;;;0.20;;
74535;SDS011;63013;51.104;-115.370;2023-02-28T16:22:57;0.30;;;0.30;;
74535;SDS011;63013;51.104;-115.370;2023-02-28T16:25:40;0.20;;;0.20;;
74535;SDS011;63013;51.104;-115.370;2023-02-28T16:28:32;0.20;;;0.20;;
74535;SDS011;63013;51.104;-115.370;2023-02-28T16:31:05;0.30;;;0.30;;
74535;SDS011;63013;51.104;-115.370;2023-02-28T16:33:34;0.20;;;0.20;;
74535;SDS011;63013;51.104;-115.370;2023-02-28T16:36:01;0.20;;;0.20;;
74535;SDS011;63013;51.104;-115.370;2023-02-28T16:38:29;0.20;;;0.20;;
74535;SDS011;63013;51.104;-115.370;2023-02-28T16:40:59;0.20;;;0.20;;
74535;SDS011;63013;51.104;-115.370;2023-02-28T16:43:26;0.30;;;0.20;;
74535;SDS011;63013;51.104;-115.370;2023-02-28T16:45:56;0.20;;;0.20;;
74535;SDS011;63013;51.104;-115.370;2023-02-28T16:48:25;0.20;;;0.20;;
74535;SDS011;63013;51.104;-115.370;2023-02-28T16:50:52;0.80;;;0.20;;
74535;SDS011;63013;51.104;-115.370;2023-02-28T16:53:19;0.20;;;0.20;;
74535;SDS011;63013;51.104;-115.370;2023-02-28T16:55:47;0.20;;;0.20;;
74535;SDS011;63013;51.104;-115.370;2023-02-28T16:58:15;0.20;;;0.20;;
74535;SDS011;63013;51.104;-115.370;2023-02-28T17:00:43;0.30;;;0.30;;
74535;SDS011;63013;51.104;-115.370;2023-02-28T17:03:24;0.30;;;0.30;;
74535;SDS011;63013;51.104;-115.370;2023-02-28T17:05:54;0.20;;;0.20;;
74535;SDS011;63013;51.104;-115.370;2023-02-28T17:08:21;0.30;;;0.30;;
74535;SDS011;63013;51.104;-115.370;2023-02-28T17:10:48;0.40;;;0.40;;
74535;SDS011;63013;51.104;-115.370;2023-02-28T17:13:15;0.70;;;0.20;;